| time (UTC) | temp F | wind direction | speed MPH | gust MPH | rain 1hr in | rain 24hr in | rain mn in | humidity % | barometer mb |
| 20260506003006 | 76 | 139 | 5.0 | 18.0 | 0.00 | 0.00 | 0.00 | 33 | 1009.3 |
| 20260506001505 | 76 | 176 | 6.0 | 12.0 | 0.00 | 0.00 | 0.00 | 31 | 1009.1 |
| 20260506000005 | 77 | 130 | 5.0 | 16.0 | 0.00 | 0.00 | 0.00 | 31 | 1009.1 |
| 20260505234505 | 77 | 190 | 7.0 | 19.0 | 0.00 | 0.00 | 0.00 | 31 | 1009.0 |
| 20260505233004 | 78 | 165 | 3.0 | 11.0 | 0.00 | 0.00 | 0.00 | 32 | 1008.9 |
| 20260505231507 | 78 | 258 | 8.0 | 19.0 | 0.00 | 0.00 | 0.00 | 30 | 1009.0 |
| 20260505230010 | 79 | 175 | 7.0 | 17.0 | 0.00 | 0.00 | 0.00 | 29 | 1009.0 |
| 20260505224500 | 80 | 244 | 9.0 | 18.0 | 0.00 | 0.00 | 0.00 | 27 | 1009.0 |
| 20260505223105 | 79 | 298 | 7.0 | 18.0 | 0.00 | 0.00 | 0.00 | 30 | 1009.1 |
| 20260505223001 | 79 | 194 | 6.0 | 18.0 | 0.00 | 0.00 | 0.00 | 31 | 1009.2 |
| 20260505221603 | 79 | 115 | 6.0 | 20.0 | 0.00 | 0.00 | 0.00 | 31 | 1009.1 |
| 20260505220109 | 80 | 224 | 7.0 | 27.0 | 0.00 | 0.00 | 0.00 | 30 | 1008.9 |
| 20260505214612 | 80 | 143 | 4.0 | 16.0 | 0.00 | 0.00 | 0.00 | 31 | 1009.0 |
| 20260505213058 | 80 | 165 | 7.0 | 19.0 | 0.00 | 0.00 | 0.00 | 31 | 1008.9 |
| 20260505211636 | 81 | 229 | 8.0 | 15.0 | 0.00 | 0.00 | 0.00 | 31 | 1008.7 |
| 20260505210057 | 81 | 153 | 9.0 | 24.0 | 0.00 | 0.00 | 0.00 | 30 | 1008.7 |
| 20260505204604 | 81 | 202 | 8.0 | 19.0 | 0.00 | 0.00 | 0.00 | 31 | 1008.9 |
| 20260505203057 | 82 | 230 | 7.0 | 23.0 | 0.00 | 0.00 | 0.00 | 28 | 1008.9 |
| 20260505201555 | 83 | 236 | 7.0 | 28.0 | 0.00 | 0.00 | 0.00 | 28 | 1008.8 |
| 20260505200055 | 83 | 240 | 10.0 | 20.0 | 0.00 | 0.00 | 0.00 | 27 | 1008.9 |
| 20260505194553 | 83 | 217 | 9.0 | 16.0 | 0.00 | 0.00 | 0.00 | 29 | 1009.0 |
| 20260505193052 | 83 | 252 | 6.0 | 22.0 | 0.00 | 0.00 | 0.00 | 29 | 1009.2 |
| 20260505191550 | 82 | 197 | 7.0 | 23.0 | 0.00 | 0.00 | 0.00 | 31 | 1009.4 |
| 20260505190052 | 83 | 158 | 7.0 | 18.0 | 0.00 | 0.00 | 0.00 | 29 | 1009.6 |
| 20260505184546 | 83 | 157 | 5.0 | 20.0 | 0.00 | 0.00 | 0.00 | 32 | 1009.8 |
| 20260505183045 | 83 | 146 | 7.0 | 14.0 | 0.00 | 0.00 | 0.00 | 34 | 1009.9 |
| 20260505181604 | 82 | 153 | 8.0 | 20.0 | 0.00 | 0.00 | 0.00 | 33 | 1010.2 |
| 20260505180047 | 82 | 184 | 9.0 | 20.0 | 0.00 | 0.00 | 0.00 | 33 | 1010.5 |
| 20260505174540 | 81 | 219 | 5.0 | 15.0 | 0.00 | 0.00 | 0.00 | 35 | 1010.6 |
| 20260505173036 | 81 | 244 | 6.0 | 17.0 | 0.00 | 0.00 | 0.00 | 32 | 1010.7 |
| 20260505171539 | 81 | 155 | 4.0 | 16.0 | 0.00 | 0.00 | 0.00 | 35 | 1010.9 |
| 20260505170032 | 80 | 232 | 4.0 | 16.0 | 0.00 | 0.00 | 0.00 | 36 | 1011.0 |
| 20260505164533 | 80 | 182 | 6.0 | 10.0 | 0.00 | 0.00 | 0.00 | 36 | 1011.2 |
| 20260505163030 | 79 | 248 | 3.0 | 14.0 | 0.00 | 0.00 | 0.00 | 38 | 1011.4 |
| 20260505161527 | 79 | 270 | 9.0 | 18.0 | 0.00 | 0.00 | 0.00 | 37 | 1011.8 |
| 20260505153032 | 77 | 177 | 6.0 | 11.0 | 0.00 | 0.00 | 0.00 | 42 | 1012.1 |
| 20260505151515 | 76 | 134 | 5.0 | 11.0 | 0.00 | 0.00 | 0.00 | 43 | 1012.0 |
| 20260505140108 | 72 | 273 | 2.0 | 7.0 | 0.00 | 0.00 | 0.00 | 53 | 1012.0 |
| 20260505124537 | 66 | 227 | 3.0 | 9.0 | 0.00 | 0.00 | 0.00 | 55 | 1012.5 |
| 20260505123046 | 64 | 184 | 2.0 | 7.0 | 0.00 | 0.00 | 0.00 | 57 | 1012.5 |
| 20260505121527 | 64 | 252 | 3.0 | 9.0 | 0.00 | 0.00 | 0.00 | 58 | 1012.4 |
| 20260505120022 | 62 | 265 | 4.0 | 9.0 | 0.00 | 0.00 | 0.00 | 59 | 1012.3 |
| 20260505114518 | 61 | 250 | 5.0 | 10.0 | 0.00 | 0.00 | 0.00 | 60 | 1012.3 |
| 20260505113016 | 61 | 273 | 2.0 | 10.0 | 0.00 | 0.00 | 0.00 | 60 | 1012.2 |
| 20260505111515 | 61 | 163 | 6.0 | 14.0 | 0.00 | 0.00 | 0.00 | 60 | 1012.0 |
| 20260505101503 | 60 | 215 | 3.0 | 13.0 | 0.00 | 0.00 | 0.00 | 62 | 1011.2 |
| 20260505100002 | 60 | 274 | 3.0 | 10.0 | 0.00 | 0.00 | 0.00 | 63 | 1011.3 |
| 20260505094559 | 60 | 227 | 3.0 | 10.0 | 0.00 | 0.00 | 0.00 | 63 | 1011.3 |
| 20260505093059 | 59 | 173 | 3.0 | 10.0 | 0.00 | 0.00 | 0.00 | 64 | 1011.1 |
| 20260505091559 | 60 | 210 | 3.0 | 10.0 | 0.00 | 0.00 | 0.00 | 64 | 1011.1 |
| 20260505090058 | 60 | 171 | 3.0 | 9.0 | 0.00 | 0.00 | 0.00 | 64 | 1011.1 |
| 20260505084603 | 60 | 193 | 2.0 | 9.0 | 0.00 | 0.00 | 0.00 | 64 | 1011.3 |
| 20260505083108 | 60 | 219 | 3.0 | 9.0 | 0.00 | 0.00 | 0.00 | 64 | 1011.2 |
| 20260505081554 | 60 | 200 | 2.0 | 13.0 | 0.00 | 0.00 | 0.00 | 65 | 1011.1 |
| 20260505080100 | 61 | 279 | 1.0 | 7.0 | 0.00 | 0.00 | 0.00 | 65 | 1011.1 |
| 20260505074550 | 61 | 158 | 2.0 | 6.0 | 0.00 | 0.00 | 0.00 | 65 | 1011.0 |
| 20260505073057 | 60 | 178 | 2.0 | 7.0 | 0.00 | 0.00 | 0.00 | 66 | 1010.9 |
| 20260505071549 | 60 | 144 | 1.0 | 9.0 | 0.00 | 0.00 | 0.00 | 66 | 1010.9 |
| 20260505070050 | 60 | 212 | 2.0 | 5.0 | 0.00 | 0.00 | 0.00 | 68 | 1010.8 |
| 20260505064614 | 59 | 155 | 1.0 | 5.0 | 0.00 | 0.00 | 0.00 | 69 | 1010.7 |
| 20260505063045 | 59 | 169 | 2.0 | 4.0 | 0.00 | 0.00 | 0.00 | 69 | 1010.8 |
| 20260505061544 | 57 | 128 | 2.0 | 4.0 | 0.00 | 0.00 | 0.00 | 74 | 1011.0 |
| 20260505060042 | 57 | 133 | 2.0 | 4.0 | 0.00 | 0.00 | 0.00 | 73 | 1011.0 |
| 20260505054547 | 58 | 133 | 1.0 | 3.0 | 0.00 | 0.00 | 0.00 | 71 | 1010.9 |
| 20260505053036 | 59 | 196 | 0.0 | 2.0 | 0.00 | 0.00 | 0.00 | 70 | 1010.8 |
| 20260505051533 | 61 | 196 | 0.0 | 3.0 | 0.00 | 0.00 | 0.00 | 66 | 1010.9 |
| 20260505041531 | 64 | 216 | 1.0 | 5.0 | 0.00 | 0.00 | 0.00 | 59 | 1011.1 |
| 20260505040031 | 64 | 180 | 2.0 | 8.0 | 0.00 | 0.00 | 0.00 | 58 | 1011.0 |
| 20260505034533 | 65 | 237 | 3.0 | 10.0 | 0.00 | 0.00 | 0.00 | 56 | 1010.9 |
| 20260505033030 | 66 | 175 | 1.0 | 9.0 | 0.00 | 0.00 | 0.00 | 55 | 1010.9 |
| 20260505031527 | 66 | 198 | 2.0 | 11.0 | 0.00 | 0.00 | 0.00 | 54 | 1011.0 |
| 20260505030041 | 66 | 183 | 2.0 | 8.0 | 0.00 | 0.00 | 0.00 | 53 | 1011.0 |
| 20260505024526 | 66 | 201 | 1.0 | 8.0 | 0.00 | 0.00 | 0.00 | 52 | 1010.9 |
| 20260505023027 | 67 | 184 | 2.0 | 7.0 | 0.00 | 0.00 | 0.00 | 49 | 1010.9 |
| 20260505021525 | 67 | 246 | 1.0 | 8.0 | 0.00 | 0.00 | 0.00 | 49 | 1010.9 |
| 20260505020024 | 68 | 190 | 1.0 | 5.0 | 0.00 | 0.00 | 0.00 | 48 | 1010.8 |
| 20260505014525 | 68 | 159 | 2.0 | 7.0 | 0.00 | 0.00 | 0.00 | 47 | 1010.5 |
| 20260505013023 | 69 | 140 | 3.0 | 8.0 | 0.00 | 0.00 | 0.00 | 47 | 1010.5 |
| 20260505011523 | 69 | 223 | 2.0 | 6.0 | 0.00 | 0.00 | 0.00 | 46 | 1010.2 |
| 20260505010021 | 69 | 214 | 2.0 | 11.0 | 0.00 | 0.00 | 0.00 | 45 | 1010.1 |
| 20260505004533 | 70 | 133 | 2.0 | 11.0 | 0.00 | 0.00 | 0.00 | 44 | 1010.1 |